Time;durP1;ratioP1;P1;durP2;ratioP2;P2;SDS_P1;SDS_P2;PMS_P1;PMS_P2;Temp;Humidity;BMP_temperature;BMP_pressure;BME280_temperature;BME280_humidity;BME280_pressure;Samples;Min_cycle;Max_cycle;Signal;HPM_P1;HPM_P2
2023/07/31 00:00:10;;;;;;;0.50;0.50;;;;;;;17.58;89.33;99342.47;5116289;28;20066;-62
2023/07/31 00:02:38;;;;;;;;;;;;;;;17.61;89.16;99348.34;5116697;28;20036;-62
2023/07/31 00:05:09;;;;;;;0.68;0.68;;;;;;;17.59;89.17;99341.59;5115923;28;20319;-63
2023/07/31 00:07:38;;;;;;;0.50;0.50;;;;;;;17.55;89.09;99340.84;5115896;28;20067;-62
2023/07/31 00:10:08;;;;;;;1.10;1.03;;;;;;;17.58;89.00;99332.16;5115810;28;20508;-62
2023/07/31 00:12:37;;;;;;;;;;;;;;;17.51;88.78;99328.06;5116436;28;20051;-62
2023/07/31 00:15:07;;;;;;;0.60;0.60;;;;;;;17.30;88.51;99327.03;5115699;28;19920;-63
2023/07/31 00:17:36;;;;;;;2.10;1.23;;;;;;;17.25;88.98;99334.94;5115626;28;20043;-63
2023/07/31 00:20:06;;;;;;;1.10;1.00;;;;;;;17.28;88.87;99334.84;5116098;28;20401;-63
2023/07/31 00:22:37;;;;;;;;;;;;;;;17.33;88.92;99330.38;5115980;28;20035;-63
2023/07/31 00:25:06;;;;;;;0.80;0.80;;;;;;;17.31;88.81;99331.31;5115738;28;19965;-62
2023/07/31 00:27:35;;;;;;;1.00;0.77;;;;;;;17.33;88.80;99338.13;5115485;28;20046;-63
2023/07/31 00:30:05;;;;;;;0.53;0.53;;;;;;;17.35;88.71;99349.22;5115658;28;20032;-63
2023/07/31 00:32:34;;;;;;;0.63;0.63;;;;;;;17.34;88.46;99354.44;5115674;28;20315;-63
2023/07/31 00:35:03;;;;;;;0.77;0.73;;;;;;;17.29;88.63;99359.75;5115587;28;20044;-63
2023/07/31 00:37:32;;;;;;;1.35;1.00;;;;;;;17.04;88.75;99369.16;5115296;28;20051;-63
2023/07/31 00:40:03;;;;;;;1.50;1.35;;;;;;;16.99;89.03;99365.88;5115209;28;20501;-63
2023/07/31 00:42:32;;;;;;;0.50;0.50;;;;;;;17.03;89.33;99362.34;5113981;28;20043;-63
2023/07/31 00:45:01;;;;;;;1.45;1.35;;;;;;;17.00;89.42;99356.44;5113921;28;20036;-62
2023/07/31 00:47:32;;;;;;;1.00;1.00;;;;;;;17.01;89.74;99352.97;5115128;28;20056;-63
2023/07/31 00:50:01;;;;;;;1.10;1.00;;;;;;;16.96;89.70;99357.44;5115273;28;20412;-63
2023/07/31 00:52:30;;;;;;;0.60;0.60;;;;;;;16.96;89.77;99368.59;5113803;28;20397;-63
2023/07/31 00:54:59;;;;;;;0.80;0.80;;;;;;;16.98;89.79;99368.53;5114306;28;20390;-63
2023/07/31 00:57:29;;;;;;;1.02;0.93;;;;;;;16.97;89.71;99361.66;5114841;28;20042;-63
2023/07/31 00:59:58;;;;;;;1.33;1.10;;;;;;;16.96;89.86;99360.84;5115225;28;20583;-63
2023/07/31 01:02:27;;;;;;;0.83;0.73;;;;;;;17.00;90.19;99346.97;5114861;28;20036;-63
2023/07/31 01:04:56;;;;;;;1.17;1.08;;;;;;;17.14;90.46;99349.94;5112632;28;20089;-63
2023/07/31 01:07:36;;;;;;;4.93;1.55;;;;;;;17.20;90.23;99359.22;5114928;28;20500;-63
2023/07/31 01:10:12;;;;;;;1.05;0.95;;;;;;;17.26;90.61;99359.00;5113712;28;20508;-63
2023/07/31 01:12:46;;;;;;;2.25;1.30;;;;;;;17.30;90.62;99366.59;5114925;28;20047;-63
2023/07/31 01:15:17;;;;;;;0.80;0.80;;;;;;;17.26;90.84;99362.44;5115104;28;20092;-63
2023/07/31 01:17:46;;;;;;;1.50;1.23;;;;;;;17.18;90.80;99356.66;5114502;28;20055;-63
2023/07/31 01:20:19;;;;;;;1.45;1.17;;;;;;;17.16;91.09;99363.63;5114468;28;20039;-63
2023/07/31 01:23:22;;;;;;;1.48;1.00;;;;;;;17.16;91.43;99358.47;5113347;28;20126;-63
2023/07/31 01:26:06;;;;;;;0.82;0.75;;;;;;;17.25;91.56;99365.06;5114643;28;20047;-63
2023/07/31 01:28:46;;;;;;;1.73;0.70;;;;;;;17.23;91.68;99365.09;5114560;28;20457;-63
2023/07/31 01:31:19;;;;;;;1.15;1.05;;;;;;;17.15;91.82;99371.41;5114420;28;20477;-63
2023/07/31 01:33:49;;;;;;;1.67;1.10;;;;;;;17.17;92.10;99364.47;5114279;28;20071;-63
2023/07/31 01:36:18;;;;;;;0.60;0.60;;;;;;;17.20;92.58;99360.03;5113860;28;20046;-63
2023/07/31 01:38:47;;;;;;;4.10;2.35;;;;;;;17.27;92.80;99358.97;5114469;28;20130;-63
2023/07/31 01:41:19;;;;;;;0.80;0.80;;;;;;;17.28;92.81;99363.22;5114772;28;20039;-63
2023/07/31 01:43:48;;;;;;;1.15;0.68;;;;;;;17.26;93.03;99365.00;5112900;28;20035;-63
2023/07/31 01:46:17;;;;;;;1.13;0.85;;;;;;;17.17;92.98;99357.56;5114001;28;20097;-63
2023/07/31 01:48:46;;;;;;;2.20;1.95;;;;;;;17.11;92.94;99355.19;5112833;28;20054;-62
2023/07/31 01:51:15;;;;;;;1.63;1.53;;;;;;;16.94;93.16;99352.28;5114341;28;20110;-63
2023/07/31 01:53:44;;;;;;;2.47;1.35;;;;;;;16.95;93.33;99348.84;5114381;28;20031;-63
2023/07/31 01:56:13;;;;;;;1.10;1.00;;;;;;;17.01;93.71;99346.06;5114323;28;20126;-63
2023/07/31 01:58:43;;;;;;;1.33;1.23;;;;;;;17.08;93.67;99350.16;5113894;28;20131;-63
2023/07/31 02:01:12;;;;;;;1.27;1.17;;;;;;;17.03;93.60;99341.72;5114505;28;20134;-63
2023/07/31 02:03:42;;;;;;;2.10;1.37;;;;;;;17.01;93.53;99348.63;5114198;28;20435;-63
2023/07/31 02:06:11;;;;;;;1.02;1.00;;;;;;;17.00;93.92;99357.28;5113934;28;20054;-63
2023/07/31 02:08:40;;;;;;;2.47;1.00;;;;;;;17.04;93.86;99353.69;5112699;28;20044;-63
2023/07/31 02:11:09;;;;;;;2.25;1.95;;;;;;;17.01;93.74;99353.78;5114464;28;20073;-63
2023/07/31 02:13:38;;;;;;;1.77;1.47;;;;;;;16.87;93.44;99366.28;5112620;28;20039;-63
2023/07/31 02:16:08;;;;;;;1.33;1.00;;;;;;;16.70;94.03;99364.22;5115786;28;20127;-63
2023/07/31 02:18:37;;;;;;;0.65;0.65;;;;;;;16.60;94.07;99367.13;5118337;28;20050;-63
2023/07/31 02:21:06;;;;;;;1.00;0.90;;;;;;;16.31;93.99;99367.97;5118022;28;20117;-63
2023/07/31 02:23:35;;;;;;;1.07;0.97;;;;;;;16.34;94.22;99375.59;5118127;27;20115;-63
2023/07/31 02:26:03;;;;;;;0.67;0.67;;;;;;;16.36;94.46;99378.97;5117879;28;20291;-63
2023/07/31 02:28:32;;;;;;;0.70;0.70;;;;;;;16.39;94.50;99388.31;5117822;28;20054;-63
2023/07/31 02:31:01;;;;;;;0.52;0.52;;;;;;;16.42;94.48;99388.25;5116855;28;20512;-63
2023/07/31 02:33:32;;;;;;;0.80;0.80;;;;;;;16.38;94.55;99395.22;5117715;28;20067;-63
2023/07/31 02:36:01;;;;;;;0.60;0.60;;;;;;;16.38;94.56;99386.66;5116481;28;20105;-63
2023/07/31 02:38:29;;;;;;;0.80;0.80;;;;;;;16.38;94.30;99391.81;5117584;28;20516;-63
2023/07/31 02:40:58;;;;;;;0.73;0.73;;;;;;;16.42;94.06;99380.50;5117535;28;20044;-63
2023/07/31 02:43:29;;;;;;;1.17;1.08;;;;;;;16.47;93.81;99391.53;5117562;28;20043;-63
2023/07/31 02:45:58;;;;;;;1.33;1.23;;;;;;;16.47;93.42;99386.38;5117218;28;20108;-63
2023/07/31 02:48:28;;;;;;;1.40;1.30;;;;;;;16.45;93.32;99393.31;5117997;28;20069;-63
2023/07/31 02:50:58;;;;;;;1.27;1.17;;;;;;;16.49;93.03;99389.75;5117346;28;20072;-63
2023/07/31 02:53:27;;;;;;;3.25;0.85;;;;;;;16.46;92.69;99389.88;5116734;28;20048;-63
2023/07/31 02:55:56;;;;;;;0.60;0.60;;;;;;;16.41;92.60;99381.41;5117292;28;20056;-63
2023/07/31 02:58:25;;;;;;;0.82;0.82;;;;;;;16.29;92.43;99386.94;5116017;28;20039;-63
2023/07/31 03:00:53;;;;;;;0.67;0.67;;;;;;;16.30;92.19;99389.44;5116161;28;20043;-64
2023/07/31 03:03:22;;;;;;;1.90;0.63;;;;;;;16.31;92.00;99385.16;5117178;28;20520;-63
2023/07/31 03:05:51;;;;;;;0.60;0.60;;;;;;;16.35;91.37;99386.72;5117309;28;20135;-63
2023/07/31 03:08:22;;;;;;;;;;;;;;;16.29;91.25;99381.78;5117467;28;20054;-63
2023/07/31 03:10:50;;;;;;;0.60;0.60;;;;;;;16.22;90.91;99382.84;5116375;28;19927;-63
2023/07/31 03:13:19;;;;;;;0.68;0.68;;;;;;;16.21;90.63;99378.56;5117803;28;20127;-64
2023/07/31 03:15:48;;;;;;;0.60;0.60;;;;;;;16.18;90.82;99383.78;5117589;28;20046;-64
2023/07/31 03:18:17;;;;;;;0.68;0.68;;;;;;;16.15;90.38;99394.19;5115952;28;20412;-64
2023/07/31 03:20:46;;;;;;;0.53;0.53;;;;;;;16.15;90.46;99399.34;5116822;28;20092;-63
2023/07/31 03:23:15;;;;;;;1.48;0.70;;;;;;;16.23;90.62;99399.97;5116653;28;20040;-63
2023/07/31 03:25:58;;;;;;;0.63;0.63;;;;;;;16.28;90.55;99400.69;5116831;28;20500;-63
2023/07/31 03:28:30;;;;;;;1.50;1.15;;;;;;;16.25;90.34;99401.59;5114810;28;20050;-63
2023/07/31 03:30:59;;;;;;;0.45;0.45;;;;;;;16.29;90.78;99397.22;5115506;28;20085;-63
2023/07/31 03:33:28;;;;;;;0.68;0.68;;;;;;;16.30;90.68;99393.75;5116470;28;20067;-63
2023/07/31 03:35:58;;;;;;;0.63;0.63;;;;;;;16.27;90.73;99388.72;5115307;28;20040;-63
2023/07/31 03:38:26;;;;;;;0.52;0.52;;;;;;;16.23;90.43;99381.94;5115625;28;20359;-63
2023/07/31 03:40:58;;;;;;;0.55;0.55;;;;;;;16.21;90.67;99388.84;5116349;28;20528;-63
2023/07/31 03:43:27;;;;;;;0.43;0.43;;;;;;;16.29;90.76;99392.06;5116377;28;20048;-63
2023/07/31 03:45:57;;;;;;;0.50;0.50;;;;;;;16.23;90.26;99392.22;5115990;27;20508;-63
2023/07/31 03:48:26;;;;;;;0.55;0.55;;;;;;;16.20;90.29;99393.16;5116597;28;20565;-63
2023/07/31 03:50:56;;;;;;;0.68;0.68;;;;;;;16.19;90.44;99385.50;5116230;28;20040;-63
2023/07/31 03:53:25;;;;;;;0.60;0.60;;;;;;;16.21;90.28;99388.84;5116060;28;20039;-63
2023/07/31 03:55:54;;;;;;;0.60;0.50;;;;;;;16.21;90.43;99394.00;5116362;28;20130;-63
2023/07/31 03:58:24;;;;;;;0.50;0.50;;;;;;;16.19;90.40;99393.22;5116330;28;20047;-63
2023/07/31 04:00:54;;;;;;;0.63;0.63;;;;;;;16.19;90.22;99395.78;5116434;28;20043;-63
2023/07/31 04:03:23;;;;;;;0.55;0.55;;;;;;;16.20;90.38;99402.63;5115981;28;20043;-64
2023/07/31 04:05:52;;;;;;;0.60;0.60;;;;;;;16.19;90.00;99411.25;5115837;28;20035;-63
2023/07/31 04:08:21;;;;;;;0.63;0.55;;;;;;;16.19;89.89;99426.69;5116033;28;20042;-63
2023/07/31 04:10:50;;;;;;;0.63;0.63;;;;;;;16.19;89.88;99427.53;5115866;28;20577;-63
2023/07/31 04:13:19;;;;;;;0.43;0.43;;;;;;;16.25;90.19;99432.50;5115963;28;20122;-63
2023/07/31 04:15:51;;;;;;;0.45;0.45;;;;;;;16.19;89.88;99429.25;5116301;28;20562;-63
2023/07/31 04:18:21;;;;;;;0.57;0.57;;;;;;;16.25;89.94;99436.81;5116018;28;20071;-63
2023/07/31 04:20:49;;;;;;;0.73;0.73;;;;;;;16.25;89.45;99431.66;5115689;28;20043;-63
2023/07/31 04:23:18;;;;;;;0.60;0.60;;;;;;;16.25;89.72;99426.50;5115480;28;20039;-63
2023/07/31 04:25:47;;;;;;;0.60;0.60;;;;;;;16.21;89.50;99427.50;5115428;28;20294;-63
2023/07/31 04:28:16;;;;;;;0.57;0.57;;;;;;;16.25;89.63;99426.50;5115765;28;20063;-63
2023/07/31 04:30:44;;;;;;;0.50;0.50;;;;;;;16.27;89.44;99419.63;5115421;28;20092;-63
2023/07/31 04:33:19;;;;;;;0.50;0.50;;;;;;;16.35;89.55;99421.06;5115725;28;20363;-63
2023/07/31 04:35:52;;;;;;;0.63;0.63;;;;;;;16.45;89.37;99425.06;5115796;28;20398;-63
2023/07/31 04:38:22;;;;;;;0.57;0.57;;;;;;;16.49;89.12;99425.81;5115273;28;20035;-63
2023/07/31 04:40:51;;;;;;;1.17;1.08;;;;;;;16.36;89.13;99424.50;5115609;28;20126;-63
2023/07/31 04:43:20;;;;;;;1.03;1.00;;;;;;;16.40;89.46;99426.09;5115144;28;20032;-63
2023/07/31 04:45:50;;;;;;;0.83;0.70;;;;;;;16.52;89.44;99420.63;5114756;28;20042;-63
2023/07/31 04:48:20;;;;;;;0.68;0.68;;;;;;;16.58;89.30;99425.59;5115133;28;20288;-63
2023/07/31 04:50:49;;;;;;;0.40;0.40;;;;;;;16.67;89.24;99433.06;5115392;28;20047;-63
2023/07/31 04:53:18;;;;;;;0.50;0.50;;;;;;;16.81;89.23;99433.50;5115029;28;20044;-63
2023/07/31 04:55:47;;;;;;;0.77;0.70;;;;;;;16.94;89.32;99429.63;5115044;28;20066;-63
2023/07/31 04:58:16;;;;;;;0.77;0.77;;;;;;;17.05;89.23;99431.91;5114924;28;20050;-64
2023/07/31 05:00:45;;;;;;;0.50;0.50;;;;;;;17.17;88.96;99427.22;5114890;28;20036;-64
2023/07/31 05:03:14;;;;;;;0.77;0.77;;;;;;;17.30;88.75;99433.66;5114633;28;20047;-64
2023/07/31 05:05:45;;;;;;;0.70;0.70;;;;;;;17.25;88.52;99432.97;5115137;28;20035;-64
2023/07/31 05:08:14;;;;;;;1.60;1.00;;;;;;;17.25;88.46;99440.69;5114734;28;20524;-63
2023/07/31 05:10:42;;;;;;;0.50;0.50;;;;;;;17.23;88.43;99431.31;5113429;28;20093;-63
2023/07/31 05:13:11;;;;;;;1.05;0.98;;;;;;;17.37;88.54;99435.16;5114992;28;20031;-64
2023/07/31 05:15:40;;;;;;;2.03;1.70;;;;;;;17.46;88.57;99431.44;5114776;28;20398;-63
2023/07/31 05:18:09;;;;;;;1.45;0.93;;;;;;;17.44;88.70;99438.41;5115317;27;20428;-63
2023/07/31 05:20:38;;;;;;;0.70;0.70;;;;;;;17.44;88.64;99441.78;5114479;28;20497;-63
2023/07/31 05:23:08;;;;;;;1.52;0.90;;;;;;;17.47;88.71;99437.47;5114716;28;20050;-63
2023/07/31 05:25:37;;;;;;;1.02;0.95;;;;;;;17.52;88.94;99433.00;5114822;28;20393;-64
2023/07/31 05:28:06;;;;;;;0.80;0.80;;;;;;;17.63;88.96;99441.25;5114409;28;20039;-64
2023/07/31 05:30:35;;;;;;;1.08;1.05;;;;;;;17.75;88.76;99439.09;5114515;28;20046;-63
2023/07/31 08:36:06;;;;;;;0.40;0.40;;;;;;;22.83;59.07;99418.31;5132147;27;20378;-65
2023/07/31 08:38:35;;;;;;;0.70;0.70;;;;;;;22.90;58.61;99414.44;5132242;27;20449;-66
2023/07/31 08:41:05;;;;;;;0.40;0.40;;;;;;;23.03;58.74;99410.25;5131961;27;20493;-63
2023/07/31 08:43:34;;;;;;;0.55;0.55;;;;;;;23.29;58.07;99417.44;5132198;27;20146;-65
2023/07/31 08:46:03;;;;;;;0.50;0.50;;;;;;;23.59;57.18;99410.47;5131849;27;20039;-65
2023/07/31 08:48:33;;;;;;;0.45;0.45;;;;;;;23.88;56.25;99414.81;5131852;28;20038;-64
2023/07/31 08:51:02;;;;;;;1.10;0.70;;;;;;;24.00;54.17;99415.88;5131587;27;20051;-64
2023/07/31 08:53:32;;;;;;;0.40;0.40;;;;;;;24.08;53.17;99415.44;5131935;27;20148;-64
2023/07/31 08:56:01;;;;;;;0.82;0.82;;;;;;;24.07;52.25;99409.38;5131517;28;20100;-64
2023/07/31 08:58:33;;;;;;;0.70;0.70;;;;;;;24.22;52.21;99410.22;5131623;27;20045;-64
2023/07/31 09:01:05;;;;;;;0.82;0.82;;;;;;;24.31;51.60;99401.84;5131763;28;20049;-65
2023/07/31 09:03:36;;;;;;;0.60;0.60;;;;;;;24.41;51.56;99406.41;5131516;27;20055;-65
2023/07/31 09:06:07;;;;;;;0.68;0.68;;;;;;;24.63;51.15;99406.75;5131690;27;20130;-64
2023/07/31 09:08:42;;;;;;;0.68;0.68;;;;;;;24.75;50.41;99410.38;5131384;27;20068;-65
2023/07/31 09:11:12;;;;;;;0.52;0.52;;;;;;;24.80;49.29;99403.13;5131873;27;20039;-64
2023/07/31 09:13:42;;;;;;;0.50;0.50;;;;;;;24.87;49.25;99408.78;5131467;28;20035;-65
2023/07/31 09:16:11;;;;;;;0.70;0.70;;;;;;;25.05;49.62;99408.44;5132301;28;20043;-62
2023/07/31 09:18:56;;;;;;;1.45;0.82;;;;;;;25.21;49.15;99408.31;5131164;28;20035;-64
2023/07/31 09:21:27;;;;;;;0.50;0.50;;;;;;;25.15;48.59;99399.06;5131069;28;20042;-64
2023/07/31 09:23:58;;;;;;;1.10;0.57;;;;;;;25.28;48.65;99399.97;5131060;28;20047;-64
2023/07/31 09:26:32;;;;;;;0.47;0.47;;;;;;;25.42;48.53;99400.81;5130974;27;20100;-64
2023/07/31 09:29:01;;;;;;;3.38;0.73;;;;;;;25.49;48.27;99402.13;5131248;27;20100;-65
2023/07/31 09:31:34;;;;;;;0.80;0.73;;;;;;;25.57;47.76;99400.69;5130768;27;20515;-64
2023/07/31 09:34:03;;;;;;;0.40;0.40;;;;;;;25.58;47.55;99401.53;5130525;27;20051;-64
2023/07/31 09:36:32;;;;;;;;;;;;;;;25.66;47.87;99409.69;5131302;27;20032;-64
2023/07/31 09:39:04;;;;;;;2.00;0.65;;;;;;;25.80;48.37;99402.59;5130703;28;19973;-65
2023/07/31 09:41:38;;;;;;;0.50;0.50;;;;;;;25.97;47.54;99401.47;5130740;28;20134;-64
2023/07/31 09:44:07;;;;;;;0.40;0.40;;;;;;;26.10;46.94;99402.31;5130971;27;20043;-64
2023/07/31 09:46:37;;;;;;;;;;;;;;;26.15;46.13;99397.63;5122112;27;20512;-64
2023/07/31 09:49:10;;;;;;;0.50;0.50;;;;;;;26.18;46.57;99389.53;5116893;28;19926;-64
2023/07/31 09:51:40;;;;;;;0.50;0.50;;;;;;;26.19;46.49;99383.38;5117194;27;20067;-63
2023/07/31 09:54:14;;;;;;;1.13;1.02;;;;;;;26.10;45.47;99389.22;5116783;28;20497;-64
2023/07/31 09:56:45;;;;;;;0.40;0.40;;;;;;;25.99;46.72;99394.34;5116627;28;20047;-63
2023/07/31 09:59:16;;;;;;;0.85;0.85;;;;;;;26.14;47.47;99379.41;5116436;28;20039;-64
2023/07/31 10:01:48;;;;;;;0.50;0.50;;;;;;;26.18;46.40;99376.47;5116685;28;20054;-63
2023/07/31 10:04:20;;;;;;;;;;;;;;;26.10;45.61;99376.16;5117287;28;20067;-64
2023/07/31 10:06:51;;;;;;;0.60;0.60;;;;;;;26.13;45.30;99368.09;5116806;28;19920;-64
2023/07/31 10:09:25;;;;;;;0.60;0.60;;;;;;;26.11;45.23;99369.97;5116486;27;20498;-64
2023/07/31 10:12:01;;;;;;;0.60;0.60;;;;;;;26.00;45.52;99380.31;5116461;28;20044;-64
2023/07/31 10:14:31;;;;;;;0.60;0.60;;;;;;;25.81;45.70;99382.53;5116280;28;20512;-64
2023/07/31 10:17:00;;;;;;;0.40;0.40;;;;;;;25.69;46.28;99370.28;5116851;28;20402;-64
2023/07/31 10:19:31;;;;;;;0.40;0.40;;;;;;;25.53;46.63;99372.25;5115976;28;20063;-63
2023/07/31 10:22:01;;;;;;;0.95;0.90;;;;;;;25.44;46.63;99372.81;5116546;28;20059;-64
2023/07/31 10:24:33;;;;;;;0.60;0.60;;;;;;;25.50;45.54;99362.84;5116535;28;20047;-64
2023/07/31 10:27:03;;;;;;;0.40;0.40;;;;;;;25.45;44.16;99366.69;5116455;28;20405;-63
2023/07/31 10:29:33;;;;;;;1.48;0.88;;;;;;;25.68;43.35;99364.19;5116398;28;20035;-64
2023/07/31 10:32:06;;;;;;;0.38;0.38;;;;;;;25.97;42.79;99359.59;5116174;28;20085;-63
2023/07/31 10:34:35;;;;;;;0.65;0.50;;;;;;;26.33;43.75;99356.25;5115836;28;20052;-64
2023/07/31 10:37:22;;;;;;;0.40;0.40;;;;;;;26.54;42.36;99352.94;5115904;28;20047;-64
2023/07/31 10:40:07;;;;;;;23.50;2.00;;;;;;;26.93;43.31;99354.50;5116199;28;20063;-63
2023/07/31 10:42:39;;;;;;;0.50;0.50;;;;;;;27.27;43.34;99360.72;5115957;28;20044;-63
2023/07/31 10:45:10;;;;;;;0.40;0.40;;;;;;;27.41;42.83;99350.06;5116148;28;20048;-64
2023/07/31 10:47:40;;;;;;;0.47;0.47;;;;;;;27.37;42.77;99342.53;5115738;28;20051;-64
2023/07/31 10:50:20;;;;;;;0.70;0.60;;;;;;;27.33;42.18;99354.19;5115602;28;20051;-64
2023/07/31 10:52:50;;;;;;;0.93;0.88;;;;;;;27.30;41.83;99355.25;5115642;28;20105;-64
2023/07/31 10:55:32;;;;;;;0.40;0.40;;;;;;;27.35;41.21;99347.06;5115277;28;20054;-63
2023/07/31 10:58:08;;;;;;;0.50;0.50;;;;;;;27.43;40.85;99348.16;5113228;28;20390;-63
2023/07/31 11:00:39;;;;;;;0.60;0.60;;;;;;;27.27;40.45;99342.38;5115581;28;20039;-64
2023/07/31 11:03:10;;;;;;;0.60;0.60;;;;;;;27.08;41.38;99347.31;5112833;28;20039;-63
2023/07/31 11:05:48;;;;;;;0.40;0.40;;;;;;;26.82;42.38;99343.97;5095523;28;20056;-64
2023/07/31 11:08:20;;;;;;;0.35;0.35;;;;;;;26.52;42.22;99339.13;5095171;28;20077;-63
2023/07/31 11:10:52;;;;;;;0.40;0.40;;;;;;;26.35;42.15;99336.03;5094884;28;20131;-63
2023/07/31 11:13:21;;;;;;;0.93;0.82;;;;;;;26.25;42.10;99338.44;5095110;28;20104;-64
2023/07/31 11:15:50;;;;;;;0.68;0.68;;;;;;;26.17;41.84;99338.16;5094646;28;20040;-64
2023/07/31 11:18:18;;;;;;;0.43;0.43;;;;;;;26.13;41.26;99325.41;5094758;28;20218;-64
2023/07/31 11:20:47;;;;;;;0.45;0.45;;;;;;;26.43;41.09;99329.31;5093527;28;20040;-62
2023/07/31 11:23:18;;;;;;;0.40;0.40;;;;;;;26.31;39.90;99311.88;5094944;28;20123;-64
2023/07/31 11:25:47;;;;;;;0.40;0.40;;;;;;;26.27;39.40;99318.28;5094889;28;20036;-64
2023/07/31 11:28:19;;;;;;;0.63;0.63;;;;;;;26.34;40.62;99311.66;5094775;28;20075;-64
2023/07/31 11:30:48;;;;;;;0.30;0.30;;;;;;;26.52;40.13;99312.94;5094513;28;20052;-64
2023/07/31 11:33:17;;;;;;;0.40;0.40;;;;;;;26.85;40.31;99303.63;5094520;28;20036;-64
2023/07/31 11:35:48;;;;;;;0.38;0.38;;;;;;;26.97;39.47;99302.72;5094132;28;20052;-63
2023/07/31 11:38:24;;;;;;;0.63;0.63;;;;;;;27.05;39.03;99310.84;5094770;28;20424;-64
2023/07/31 11:40:53;;;;;;;0.40;0.40;;;;;;;27.25;38.83;99312.81;5094337;28;20044;-64
2023/07/31 11:43:24;;;;;;;0.32;0.32;;;;;;;27.30;38.49;99315.94;5094299;28;20051;-64
2023/07/31 11:45:55;;;;;;;0.40;0.40;;;;;;;27.49;38.99;99307.53;5094282;28;20122;-64
2023/07/31 11:48:26;;;;;;;0.63;0.63;;;;;;;27.45;38.79;99311.38;5094086;28;20510;-64
2023/07/31 11:51:01;;;;;;;0.50;0.50;;;;;;;27.10;37.98;99300.84;5094219;28;20132;-64
2023/07/31 11:53:36;;;;;;;0.50;0.50;;;;;;;27.05;38.72;99300.34;5094443;28;20505;-64
2023/07/31 11:56:08;;;;;;;0.60;0.60;;;;;;;27.19;39.93;99301.00;5093972;28;20044;-63
2023/07/31 11:58:39;;;;;;;0.65;0.60;;;;;;;27.25;39.73;99297.09;5094164;28;20375;-64
2023/07/31 12:01:10;;;;;;;0.60;0.60;;;;;;;27.53;39.79;99301.09;5094356;28;20052;-64
2023/07/31 12:03:40;;;;;;;0.85;0.85;;;;;;;27.61;38.58;99285.63;5094242;28;20575;-64
2023/07/31 12:06:09;;;;;;;0.50;0.50;;;;;;;27.75;38.15;99288.88;5094144;28;20512;-64
2023/07/31 12:08:38;;;;;;;0.63;0.63;;;;;;;28.08;38.52;99287.19;5093646;28;20044;-64
2023/07/31 12:11:09;;;;;;;0.50;0.50;;;;;;;28.17;37.47;99276.00;5094116;28;20036;-63
2023/07/31 12:13:39;;;;;;;0.82;0.70;;;;;;;28.10;37.71;99285.31;5094043;28;20075;-63
2023/07/31 12:16:08;;;;;;;0.57;0.57;;;;;;;28.02;38.05;99277.19;5093728;28;20036;-64
2023/07/31 12:18:39;;;;;;;2.10;1.10;;;;;;;28.00;38.09;99271.25;5094056;28;20071;-63
2023/07/31 12:21:11;;;;;;;1.70;1.10;;;;;;;27.86;37.20;99267.88;5093785;28;20093;-63
2023/07/31 12:23:42;;;;;;;0.65;0.60;;;;;;;28.00;37.09;99258.97;5093769;28;20044;-64
2023/07/31 12:26:13;;;;;;;0.40;0.40;;;;;;;28.14;36.18;99263.94;5094064;28;20094;-63
2023/07/31 12:28:45;;;;;;;0.40;0.40;;;;;;;28.28;35.73;99249.72;5094101;28;20040;-64
2023/07/31 12:31:17;;;;;;;0.50;0.50;;;;;;;28.42;36.67;99254.69;5093639;28;20118;-64
2023/07/31 12:33:47;;;;;;;0.38;0.38;;;;;;;28.65;37.20;99255.50;5093367;28;20044;-64
2023/07/31 12:36:18;;;;;;;0.50;0.50;;;;;;;28.67;38.02;99259.66;5093566;28;20040;-63
2023/07/31 12:38:47;;;;;;;0.55;0.55;;;;;;;28.37;36.88;99252.44;5093927;28;20044;-64
2023/07/31 12:41:16;;;;;;;0.40;0.40;;;;;;;28.28;37.19;99247.94;5093800;28;20062;-64
2023/07/31 12:43:47;;;;;;;0.52;0.52;;;;;;;28.25;37.10;99252.56;5093625;28;20521;-63
2023/07/31 12:46:17;;;;;;;0.45;0.45;;;;;;;28.07;37.15;99249.66;5093864;28;20142;-63
2023/07/31 12:48:46;;;;;;;0.65;0.65;;;;;;;28.09;36.79;99241.63;5093569;28;20093;-63
2023/07/31 12:51:14;;;;;;;1.75;1.08;;;;;;;28.08;36.78;99250.47;5093455;28;20048;-63
2023/07/31 12:53:43;;;;;;;0.60;0.60;;;;;;;27.85;37.32;99247.84;5093921;28;20044;-64
2023/07/31 12:56:12;;;;;;;0.50;0.50;;;;;;;27.72;39.04;99239.25;5093565;28;20551;-64
2023/07/31 12:58:41;;;;;;;0.40;0.40;;;;;;;27.66;38.59;99239.75;5093350;28;20052;-63
2023/07/31 13:01:11;;;;;;;0.50;0.50;;;;;;;27.71;38.79;99234.97;5093461;28;20153;-64
2023/07/31 13:03:40;;;;;;;0.70;0.70;;;;;;;28.03;38.93;99226.38;5093646;28;20101;-64
2023/07/31 13:06:09;;;;;;;0.45;0.45;;;;;;;28.19;38.87;99221.59;5093356;28;20054;-64
2023/07/31 13:08:38;;;;;;;0.40;0.40;;;;;;;28.16;37.56;99216.56;5093254;28;20153;-63
2023/07/31 13:11:07;;;;;;;0.50;0.50;;;;;;;28.19;37.30;99217.16;5093225;28;20036;-64
2023/07/31 13:13:36;;;;;;;0.40;0.40;;;;;;;28.09;38.25;99215.41;5093260;28;20553;-63
2023/07/31 13:16:05;;;;;;;0.40;0.40;;;;;;;28.01;38.72;99208.13;5093156;28;20051;-63
2023/07/31 13:18:35;;;;;;;0.60;0.60;;;;;;;27.94;39.20;99201.66;5093182;28;20060;-63
2023/07/31 13:21:04;;;;;;;0.32;0.32;;;;;;;27.87;39.44;99201.31;5094068;28;20127;-63
2023/07/31 13:23:33;;;;;;;0.73;0.55;;;;;;;27.82;39.62;99202.63;5096948;28;20036;-63
2023/07/31 13:26:02;;;;;;;0.40;0.40;;;;;;;27.75;39.07;99202.28;5097285;28;20034;-63
2023/07/31 13:28:31;;;;;;;0.50;0.50;;;;;;;27.70;39.37;99204.44;5096872;28;20169;-63
2023/07/31 13:31:00;;;;;;;0.43;0.43;;;;;;;27.61;39.72;99197.31;5097023;28;20036;-64
2023/07/31 13:33:29;;;;;;;0.40;0.40;;;;;;;27.64;39.61;99194.41;5096736;28;20050;-63
2023/07/31 13:36:07;;;;;;;0.60;0.60;;;;;;;27.58;38.73;99187.03;5097086;28;20066;-63
2023/07/31 13:38:36;;;;;;;1.02;0.85;;;;;;;27.69;38.49;99189.66;5096715;28;20036;-63
2023/07/31 13:41:05;;;;;;;1.15;0.93;;;;;;;27.71;37.93;99179.06;5096619;28;20040;-63
2023/07/31 13:43:34;;;;;;;0.35;0.35;;;;;;;27.87;37.79;99185.59;5097431;28;20036;-63
2023/07/31 13:46:06;;;;;;;0.50;0.50;;;;;;;28.01;38.58;99178.41;5096773;28;20044;-63
2023/07/31 13:48:36;;;;;;;0.43;0.43;;;;;;;27.86;38.60;99178.66;5097278;28;20039;-62
2023/07/31 13:51:05;;;;;;;0.63;0.63;;;;;;;27.69;38.61;99181.78;5096685;28;20517;-64
2023/07/31 13:53:35;;;;;;;0.70;0.70;;;;;;;27.73;39.22;99183.22;5096402;28;20036;-64
2023/07/31 13:56:05;;;;;;;0.50;0.50;;;;;;;27.63;39.49;99176.19;5096795;28;20508;-63
2023/07/31 13:58:34;;;;;;;0.40;0.40;;;;;;;27.55;41.16;99179.41;5096618;28;20036;-63
2023/07/31 14:01:04;;;;;;;0.77;0.73;;;;;;;27.42;40.70;99172.63;5096601;28;20448;-63
2023/07/31 14:03:32;;;;;;;0.80;0.63;;;;;;;27.35;40.80;99177.50;5096742;28;20519;-63
2023/07/31 14:06:02;;;;;;;0.60;0.60;;;;;;;27.28;41.07;99173.69;5096244;28;20047;-63
2023/07/31 14:08:30;;;;;;;1.20;1.10;;;;;;;27.19;39.97;99174.34;5096122;28;20063;-63
2023/07/31 14:11:01;;;;;;;0.40;0.40;;;;;;;27.24;40.29;99170.44;5095505;28;20093;-64
2023/07/31 14:13:30;;;;;;;0.60;0.60;;;;;;;27.21;39.80;99175.09;5096414;28;20131;-63
2023/07/31 14:15:58;;;;;;;0.55;0.55;;;;;;;27.37;40.74;99167.72;5095990;28;20040;-63
2023/07/31 14:18:27;;;;;;;0.40;0.40;;;;;;;27.52;40.79;99174.41;5096038;28;20482;-63
2023/07/31 14:20:57;;;;;;;0.32;0.32;;;;;;;27.44;40.25;99168.94;5096162;28;20527;-63
2023/07/31 14:23:26;;;;;;;0.38;0.38;;;;;;;27.31;39.55;99165.56;5095847;28;20039;-63
2023/07/31 14:25:55;;;;;;;0.60;0.60;;;;;;;27.32;39.29;99164.63;5095777;28;20043;-64
2023/07/31 14:28:25;;;;;;;0.70;0.70;;;;;;;27.37;39.39;99162.47;5095728;28;20067;-64
2023/07/31 14:30:54;;;;;;;0.77;0.73;;;;;;;27.38;39.65;99161.53;5095813;28;20060;-63
2023/07/31 14:33:23;;;;;;;0.40;0.40;;;;;;;27.38;39.63;99161.53;5096089;28;20044;-64
2023/07/31 14:35:53;;;;;;;;;;;;;;;27.55;39.77;99158.44;5096600;28;20052;-64
2023/07/31 14:38:22;;;;;;;0.40;0.40;;;;;;;27.85;40.54;99153.41;5095443;28;19927;-64
2023/07/31 14:40:53;;;;;;;0.50;0.50;;;;;;;28.05;40.55;99156.25;5095564;28;20040;-64
2023/07/31 14:43:22;;;;;;;1.25;0.95;;;;;;;28.05;39.60;99161.50;5095544;28;20457;-64
2023/07/31 14:45:53;;;;;;;0.45;0.45;;;;;;;28.07;40.15;99156.94;5095779;28;20040;-63
2023/07/31 14:48:22;;;;;;;0.52;0.52;;;;;;;28.11;40.24;99159.19;5095703;28;20506;-64
2023/07/31 14:50:51;;;;;;;0.57;0.57;;;;;;;28.07;39.54;99155.16;5095640;28;20036;-63